sensor_id;sensor_type;location;lat;lon;timestamp;P1;durP1;ratioP1;P2;durP2;ratioP2
422;SDS011;198;48.752;9.180;2023-08-24T00:00:30;5.10;;;4.17;;
422;SDS011;198;48.752;9.180;2023-08-24T00:02:57;6.40;;;3.90;;
422;SDS011;198;48.752;9.180;2023-08-24T00:05:23;8.80;;;4.00;;
422;SDS011;198;48.752;9.180;2023-08-24T00:07:48;8.53;;;3.90;;
422;SDS011;198;48.752;9.180;2023-08-24T00:10:14;5.43;;;3.50;;
422;SDS011;198;48.752;9.180;2023-08-24T00:12:40;8.53;;;3.80;;
422;SDS011;198;48.752;9.180;2023-08-24T00:15:07;5.37;;;4.00;;
422;SDS011;198;48.752;9.180;2023-08-24T00:17:34;7.53;;;3.80;;
422;SDS011;198;48.752;9.180;2023-08-24T00:19:59;9.23;;;4.53;;
422;SDS011;198;48.752;9.180;2023-08-24T00:22:29;6.60;;;3.70;;
422;SDS011;198;48.752;9.180;2023-08-24T00:24:55;7.60;;;4.47;;
422;SDS011;198;48.752;9.180;2023-08-24T00:27:20;6.03;;;4.27;;
422;SDS011;198;48.752;9.180;2023-08-24T00:29:46;4.90;;;3.47;;
422;SDS011;198;48.752;9.180;2023-08-24T00:32:11;6.63;;;3.70;;
422;SDS011;198;48.752;9.180;2023-08-24T00:34:37;9.53;;;4.03;;
422;SDS011;198;48.752;9.180;2023-08-24T00:37:02;5.90;;;3.20;;
422;SDS011;198;48.752;9.180;2023-08-24T00:39:28;17.83;;;3.90;;
422;SDS011;198;48.752;9.180;2023-08-24T00:41:53;3.73;;;3.50;;
422;SDS011;198;48.752;9.180;2023-08-24T00:44:19;8.73;;;3.33;;
422;SDS011;198;48.752;9.180;2023-08-24T00:46:45;8.20;;;3.60;;
422;SDS011;198;48.752;9.180;2023-08-24T00:49:10;6.07;;;3.90;;
422;SDS011;198;48.752;9.180;2023-08-24T00:51:36;10.90;;;4.77;;
422;SDS011;198;48.752;9.180;2023-08-24T00:54:03;10.00;;;4.90;;
422;SDS011;198;48.752;9.180;2023-08-24T00:56:29;10.23;;;4.80;;
422;SDS011;198;48.752;9.180;2023-08-24T00:58:55;6.73;;;4.10;;
422;SDS011;198;48.752;9.180;2023-08-24T01:01:22;10.90;;;6.17;;
422;SDS011;198;48.752;9.180;2023-08-24T01:03:49;7.43;;;4.47;;
422;SDS011;198;48.752;9.180;2023-08-24T01:06:15;13.70;;;4.87;;
422;SDS011;198;48.752;9.180;2023-08-24T01:08:40;7.87;;;4.80;;
422;SDS011;198;48.752;9.180;2023-08-24T01:16:55;10.03;;;5.33;;
422;SDS011;198;48.752;9.180;2023-08-24T01:21:59;9.70;;;5.20;;
422;SDS011;198;48.752;9.180;2023-08-24T01:24:47;11.40;;;7.40;;
422;SDS011;198;48.752;9.180;2023-08-24T01:27:19;13.60;;;5.70;;
422;SDS011;198;48.752;9.180;2023-08-24T01:29:46;9.30;;;5.53;;
422;SDS011;198;48.752;9.180;2023-08-24T01:32:12;14.03;;;6.23;;
422;SDS011;198;48.752;9.180;2023-08-24T01:34:38;12.10;;;6.10;;
422;SDS011;198;48.752;9.180;2023-08-24T01:37:04;14.90;;;5.70;;
422;SDS011;198;48.752;9.180;2023-08-24T01:39:37;8.50;;;4.20;;
422;SDS011;198;48.752;9.180;2023-08-24T01:42:11;7.60;;;4.63;;
422;SDS011;198;48.752;9.180;2023-08-24T01:44:43;8.20;;;5.40;;
422;SDS011;198;48.752;9.180;2023-08-24T01:47:15;7.33;;;4.70;;
422;SDS011;198;48.752;9.180;2023-08-24T01:49:43;9.20;;;5.07;;
422;SDS011;198;48.752;9.180;2023-08-24T01:52:09;7.10;;;4.13;;
422;SDS011;198;48.752;9.180;2023-08-24T01:54:36;12.53;;;5.37;;
422;SDS011;198;48.752;9.180;2023-08-24T01:57:04;13.27;;;5.00;;
422;SDS011;198;48.752;9.180;2023-08-24T01:59:30;5.87;;;4.47;;
422;SDS011;198;48.752;9.180;2023-08-24T02:01:55;7.63;;;4.80;;
422;SDS011;198;48.752;9.180;2023-08-24T02:04:21;6.27;;;4.20;;
422;SDS011;198;48.752;9.180;2023-08-24T02:06:46;9.07;;;4.40;;
422;SDS011;198;48.752;9.180;2023-08-24T02:09:12;5.90;;;4.03;;
422;SDS011;198;48.752;9.180;2023-08-24T02:11:38;8.07;;;4.00;;
422;SDS011;198;48.752;9.180;2023-08-24T02:14:03;11.10;;;4.40;;
422;SDS011;198;48.752;9.180;2023-08-24T02:16:29;9.60;;;4.40;;
422;SDS011;198;48.752;9.180;2023-08-24T02:18:55;7.73;;;4.10;;
422;SDS011;198;48.752;9.180;2023-08-24T02:21:20;10.83;;;4.90;;
422;SDS011;198;48.752;9.180;2023-08-24T02:23:46;17.03;;;4.97;;
422;SDS011;198;48.752;9.180;2023-08-24T02:26:12;8.07;;;4.83;;
422;SDS011;198;48.752;9.180;2023-08-24T02:28:37;5.80;;;4.47;;
422;SDS011;198;48.752;9.180;2023-08-24T02:31:03;7.93;;;4.37;;
422;SDS011;198;48.752;9.180;2023-08-24T02:33:30;6.20;;;4.73;;
422;SDS011;198;48.752;9.180;2023-08-24T02:35:56;5.93;;;4.33;;
422;SDS011;198;48.752;9.180;2023-08-24T02:38:22;17.80;;;5.47;;
422;SDS011;198;48.752;9.180;2023-08-24T02:40:48;7.17;;;4.60;;
422;SDS011;198;48.752;9.180;2023-08-24T02:43:14;11.33;;;4.53;;
422;SDS011;198;48.752;9.180;2023-08-24T02:45:39;9.97;;;4.70;;
422;SDS011;198;48.752;9.180;2023-08-24T02:48:05;5.43;;;4.53;;
422;SDS011;198;48.752;9.180;2023-08-24T02:50:30;10.33;;;5.13;;
422;SDS011;198;48.752;9.180;2023-08-24T02:52:56;5.70;;;4.50;;
422;SDS011;198;48.752;9.180;2023-08-24T02:55:23;7.87;;;4.60;;
422;SDS011;198;48.752;9.180;2023-08-24T02:57:49;7.73;;;3.83;;
422;SDS011;198;48.752;9.180;2023-08-24T03:00:15;11.23;;;4.40;;
422;SDS011;198;48.752;9.180;2023-08-24T03:02:42;12.40;;;5.13;;
422;SDS011;198;48.752;9.180;2023-08-24T03:05:07;5.77;;;3.93;;
422;SDS011;198;48.752;9.180;2023-08-24T03:07:33;6.10;;;4.10;;
422;SDS011;198;48.752;9.180;2023-08-24T03:09:58;7.60;;;3.53;;
422;SDS011;198;48.752;9.180;2023-08-24T03:12:24;6.17;;;4.20;;
422;SDS011;198;48.752;9.180;2023-08-24T03:14:52;6.17;;;4.40;;
422;SDS011;198;48.752;9.180;2023-08-24T03:17:18;6.73;;;4.30;;
422;SDS011;198;48.752;9.180;2023-08-24T03:19:44;8.77;;;3.70;;
422;SDS011;198;48.752;9.180;2023-08-24T03:22:09;6.83;;;3.97;;
422;SDS011;198;48.752;9.180;2023-08-24T03:24:35;5.00;;;4.00;;
422;SDS011;198;48.752;9.180;2023-08-24T03:27:01;5.40;;;4.03;;
422;SDS011;198;48.752;9.180;2023-08-24T03:29:27;8.70;;;4.10;;
422;SDS011;198;48.752;9.180;2023-08-24T03:31:52;12.60;;;5.07;;
422;SDS011;198;48.752;9.180;2023-08-24T03:34:18;5.33;;;4.60;;
422;SDS011;198;48.752;9.180;2023-08-24T03:36:45;8.90;;;4.20;;
422;SDS011;198;48.752;9.180;2023-08-24T03:39:12;6.13;;;4.00;;
422;SDS011;198;48.752;9.180;2023-08-24T03:41:38;5.53;;;4.40;;
422;SDS011;198;48.752;9.180;2023-08-24T03:44:04;7.57;;;4.33;;
422;SDS011;198;48.752;9.180;2023-08-24T03:46:29;4.40;;;4.10;;
422;SDS011;198;48.752;9.180;2023-08-24T03:48:55;9.60;;;4.17;;
422;SDS011;198;48.752;9.180;2023-08-24T03:51:20;9.30;;;3.87;;
422;SDS011;198;48.752;9.180;2023-08-24T03:53:46;5.67;;;4.23;;
422;SDS011;198;48.752;9.180;2023-08-24T03:56:11;9.03;;;5.30;;
422;SDS011;198;48.752;9.180;2023-08-24T03:58:37;6.83;;;3.97;;
422;SDS011;198;48.752;9.180;2023-08-24T04:01:02;5.67;;;4.03;;
422;SDS011;198;48.752;9.180;2023-08-24T04:03:28;6.90;;;4.10;;
422;SDS011;198;48.752;9.180;2023-08-24T04:05:53;6.30;;;3.90;;
422;SDS011;198;48.752;9.180;2023-08-24T04:08:19;11.33;;;4.37;;
422;SDS011;198;48.752;9.180;2023-08-24T04:10:44;9.07;;;4.47;;
422;SDS011;198;48.752;9.180;2023-08-24T04:13:10;7.70;;;4.43;;
422;SDS011;198;48.752;9.180;2023-08-24T04:15:35;8.93;;;4.50;;
422;SDS011;198;48.752;9.180;2023-08-24T04:18:01;6.73;;;4.40;;
422;SDS011;198;48.752;9.180;2023-08-24T04:20:27;6.83;;;4.17;;
422;SDS011;198;48.752;9.180;2023-08-24T04:22:54;10.27;;;4.70;;
422;SDS011;198;48.752;9.180;2023-08-24T04:25:19;7.97;;;4.93;;
422;SDS011;198;48.752;9.180;2023-08-24T04:27:45;9.20;;;5.40;;
422;SDS011;198;48.752;9.180;2023-08-24T04:30:10;9.73;;;5.13;;
422;SDS011;198;48.752;9.180;2023-08-24T04:32:37;12.73;;;5.60;;
422;SDS011;198;48.752;9.180;2023-08-24T04:35:02;18.33;;;5.97;;
422;SDS011;198;48.752;9.180;2023-08-24T04:37:28;10.57;;;5.40;;
422;SDS011;198;48.752;9.180;2023-08-24T04:39:54;7.67;;;4.30;;
422;SDS011;198;48.752;9.180;2023-08-24T04:42:19;10.23;;;4.67;;
422;SDS011;198;48.752;9.180;2023-08-24T04:44:45;8.20;;;4.83;;
422;SDS011;198;48.752;9.180;2023-08-24T04:47:10;8.67;;;5.17;;
422;SDS011;198;48.752;9.180;2023-08-24T04:49:36;7.67;;;5.07;;
422;SDS011;198;48.752;9.180;2023-08-24T04:52:02;9.50;;;4.50;;
422;SDS011;198;48.752;9.180;2023-08-24T04:54:27;9.40;;;5.20;;
422;SDS011;198;48.752;9.180;2023-08-24T04:56:54;9.20;;;4.73;;
422;SDS011;198;48.752;9.180;2023-08-24T04:59:19;10.40;;;5.30;;
422;SDS011;198;48.752;9.180;2023-08-24T05:01:45;11.13;;;5.20;;
422;SDS011;198;48.752;9.180;2023-08-24T05:04:10;7.73;;;5.10;;
422;SDS011;198;48.752;9.180;2023-08-24T05:06:36;20.63;;;5.00;;
422;SDS011;198;48.752;9.180;2023-08-24T05:09:01;12.83;;;5.10;;
422;SDS011;198;48.752;9.180;2023-08-24T05:11:27;8.73;;;5.10;;
422;SDS011;198;48.752;9.180;2023-08-24T05:13:56;9.20;;;4.63;;
422;SDS011;198;48.752;9.180;2023-08-24T05:16:22;14.40;;;4.80;;
422;SDS011;198;48.752;9.180;2023-08-24T05:18:48;14.50;;;4.90;;
422;SDS011;198;48.752;9.180;2023-08-24T05:21:13;12.47;;;5.13;;
422;SDS011;198;48.752;9.180;2023-08-24T05:23:39;12.13;;;4.60;;
422;SDS011;198;48.752;9.180;2023-08-24T05:26:05;12.23;;;4.87;;
422;SDS011;198;48.752;9.180;2023-08-24T05:28:30;8.93;;;4.37;;
422;SDS011;198;48.752;9.180;2023-08-24T05:30:56;6.60;;;4.90;;
422;SDS011;198;48.752;9.180;2023-08-24T05:33:23;8.00;;;4.40;;
422;SDS011;198;48.752;9.180;2023-08-24T05:35:50;12.23;;;5.90;;
422;SDS011;198;48.752;9.180;2023-08-24T05:38:16;6.63;;;5.13;;
422;SDS011;198;48.752;9.180;2023-08-24T05:40:46;7.40;;;4.83;;
422;SDS011;198;48.752;9.180;2023-08-24T05:43:13;15.50;;;4.70;;
422;SDS011;198;48.752;9.180;2023-08-24T05:45:38;10.17;;;5.33;;
422;SDS011;198;48.752;9.180;2023-08-24T05:48:05;7.17;;;4.67;;
422;SDS011;198;48.752;9.180;2023-08-24T05:50:31;8.33;;;5.23;;
422;SDS011;198;48.752;9.180;2023-08-24T05:52:57;12.23;;;5.40;;
422;SDS011;198;48.752;9.180;2023-08-24T05:55:22;8.40;;;4.90;;
422;SDS011;198;48.752;9.180;2023-08-24T05:57:48;13.20;;;5.30;;
422;SDS011;198;48.752;9.180;2023-08-24T06:00:13;8.37;;;5.10;;
422;SDS011;198;48.752;9.180;2023-08-24T06:02:39;10.10;;;4.50;;
422;SDS011;198;48.752;9.180;2023-08-24T06:05:05;9.77;;;5.50;;
422;SDS011;198;48.752;9.180;2023-08-24T06:07:32;7.30;;;5.00;;
422;SDS011;198;48.752;9.180;2023-08-24T06:09:58;11.47;;;5.57;;
422;SDS011;198;48.752;9.180;2023-08-24T06:12:24;22.43;;;6.07;;
422;SDS011;198;48.752;9.180;2023-08-24T06:14:50;20.10;;;4.83;;
422;SDS011;198;48.752;9.180;2023-08-24T06:17:15;8.43;;;4.50;;
422;SDS011;198;48.752;9.180;2023-08-24T06:19:41;8.23;;;4.77;;
422;SDS011;198;48.752;9.180;2023-08-24T06:22:06;15.40;;;5.23;;
422;SDS011;198;48.752;9.180;2023-08-24T06:24:32;11.90;;;5.20;;
422;SDS011;198;48.752;9.180;2023-08-24T06:26:58;9.77;;;4.70;;
422;SDS011;198;48.752;9.180;2023-08-24T06:29:23;7.63;;;4.57;;
422;SDS011;198;48.752;9.180;2023-08-24T06:31:49;9.47;;;5.00;;
422;SDS011;198;48.752;9.180;2023-08-24T06:34:14;6.37;;;4.90;;
422;SDS011;198;48.752;9.180;2023-08-24T06:36:40;5.77;;;4.13;;
422;SDS011;198;48.752;9.180;2023-08-24T06:39:05;11.23;;;5.60;;
422;SDS011;198;48.752;9.180;2023-08-24T06:41:34;12.10;;;5.03;;
422;SDS011;198;48.752;9.180;2023-08-24T06:44:00;12.17;;;4.37;;
422;SDS011;198;48.752;9.180;2023-08-24T06:46:26;5.97;;;4.63;;
422;SDS011;198;48.752;9.180;2023-08-24T06:48:51;5.83;;;4.10;;
422;SDS011;198;48.752;9.180;2023-08-24T06:51:17;4.20;;;3.60;;
422;SDS011;198;48.752;9.180;2023-08-24T06:53:42;6.93;;;4.60;;
422;SDS011;198;48.752;9.180;2023-08-24T06:56:08;10.17;;;4.80;;
422;SDS011;198;48.752;9.180;2023-08-24T06:58:34;7.63;;;4.30;;
422;SDS011;198;48.752;9.180;2023-08-24T07:00:59;14.50;;;4.50;;
422;SDS011;198;48.752;9.180;2023-08-24T07:03:25;5.50;;;4.50;;
422;SDS011;198;48.752;9.180;2023-08-24T07:05:51;4.97;;;3.70;;
422;SDS011;198;48.752;9.180;2023-08-24T07:08:17;11.80;;;3.97;;
422;SDS011;198;48.752;9.180;2023-08-24T07:10:42;6.40;;;4.33;;
422;SDS011;198;48.752;9.180;2023-08-24T07:13:08;8.27;;;4.93;;
422;SDS011;198;48.752;9.180;2023-08-24T07:15:34;7.07;;;4.50;;
422;SDS011;198;48.752;9.180;2023-08-24T07:18:02;6.43;;;3.93;;
422;SDS011;198;48.752;9.180;2023-08-24T07:20:30;5.83;;;4.50;;
422;SDS011;198;48.752;9.180;2023-08-24T07:22:57;5.50;;;3.80;;
422;SDS011;198;48.752;9.180;2023-08-24T07:25:23;7.50;;;3.60;;
422;SDS011;198;48.752;9.180;2023-08-24T07:27:48;5.80;;;3.90;;
422;SDS011;198;48.752;9.180;2023-08-24T07:30:14;8.53;;;4.20;;
422;SDS011;198;48.752;9.180;2023-08-24T07:32:39;8.53;;;4.20;;
422;SDS011;198;48.752;9.180;2023-08-24T07:35:06;6.67;;;3.87;;
422;SDS011;198;48.752;9.180;2023-08-24T07:37:32;6.50;;;3.57;;
422;SDS011;198;48.752;9.180;2023-08-24T07:39:58;6.63;;;4.23;;
422;SDS011;198;48.752;9.180;2023-08-24T07:42:23;13.07;;;4.30;;
422;SDS011;198;48.752;9.180;2023-08-24T07:44:49;9.57;;;4.70;;
422;SDS011;198;48.752;9.180;2023-08-24T07:47:15;7.50;;;5.07;;
422;SDS011;198;48.752;9.180;2023-08-24T07:49:41;11.87;;;5.13;;
422;SDS011;198;48.752;9.180;2023-08-24T07:52:09;17.80;;;5.73;;
422;SDS011;198;48.752;9.180;2023-08-24T07:54:38;10.37;;;5.23;;
422;SDS011;198;48.752;9.180;2023-08-24T07:57:04;9.83;;;4.73;;
422;SDS011;198;48.752;9.180;2023-08-24T07:59:31;10.60;;;4.97;;
422;SDS011;198;48.752;9.180;2023-08-24T08:01:56;9.63;;;5.00;;
422;SDS011;198;48.752;9.180;2023-08-24T08:04:22;6.60;;;4.37;;
422;SDS011;198;48.752;9.180;2023-08-24T08:06:47;15.80;;;5.03;;
422;SDS011;198;48.752;9.180;2023-08-24T08:09:13;8.40;;;3.77;;
422;SDS011;198;48.752;9.180;2023-08-24T08:11:38;6.87;;;4.17;;
422;SDS011;198;48.752;9.180;2023-08-24T08:14:04;10.90;;;5.60;;
422;SDS011;198;48.752;9.180;2023-08-24T08:16:30;7.40;;;4.20;;
422;SDS011;198;48.752;9.180;2023-08-24T08:18:55;14.30;;;5.20;;
422;SDS011;198;48.752;9.180;2023-08-24T08:21:21;9.40;;;4.60;;
422;SDS011;198;48.752;9.180;2023-08-24T08:23:48;13.00;;;5.10;;
422;SDS011;198;48.752;9.180;2023-08-24T08:26:14;9.33;;;4.63;;
422;SDS011;198;48.752;9.180;2023-08-24T08:28:39;8.33;;;5.30;;
422;SDS011;198;48.752;9.180;2023-08-24T08:31:05;15.33;;;4.97;;
422;SDS011;198;48.752;9.180;2023-08-24T08:33:31;10.30;;;4.80;;
422;SDS011;198;48.752;9.180;2023-08-24T08:35:56;7.80;;;4.30;;
422;SDS011;198;48.752;9.180;2023-08-24T08:38:22;19.83;;;5.27;;
422;SDS011;198;48.752;9.180;2023-08-24T08:40:50;6.60;;;4.10;;
422;SDS011;198;48.752;9.180;2023-08-24T08:43:18;6.90;;;4.27;;
422;SDS011;198;48.752;9.180;2023-08-24T08:45:46;9.17;;;4.57;;
422;SDS011;198;48.752;9.180;2023-08-24T08:48:12;12.03;;;3.50;;
422;SDS011;198;48.752;9.180;2023-08-24T08:50:38;11.30;;;4.30;;
422;SDS011;198;48.752;9.180;2023-08-24T08:53:03;7.77;;;4.60;;
422;SDS011;198;48.752;9.180;2023-08-24T08:55:29;11.60;;;5.23;;
422;SDS011;198;48.752;9.180;2023-08-24T08:57:56;5.97;;;4.23;;
422;SDS011;198;48.752;9.180;2023-08-24T09:00:30;6.83;;;4.70;;
422;SDS011;198;48.752;9.180;2023-08-24T09:02:57;11.27;;;4.60;;
422;SDS011;198;48.752;9.180;2023-08-24T09:05:23;39.67;;;4.47;;
422;SDS011;198;48.752;9.180;2023-08-24T09:07:51;4.87;;;3.63;;
422;SDS011;198;48.752;9.180;2023-08-24T09:10:19;8.43;;;4.70;;
422;SDS011;198;48.752;9.180;2023-08-24T09:12:44;8.00;;;4.23;;
422;SDS011;198;48.752;9.180;2023-08-24T09:15:10;8.77;;;3.60;;
422;SDS011;198;48.752;9.180;2023-08-24T09:17:36;9.20;;;3.80;;
422;SDS011;198;48.752;9.180;2023-08-24T09:20:07;6.87;;;3.97;;
422;SDS011;198;48.752;9.180;2023-08-24T09:22:34;9.93;;;4.33;;
422;SDS011;198;48.752;9.180;2023-08-24T09:25:01;13.13;;;4.40;;
422;SDS011;198;48.752;9.180;2023-08-24T09:27:29;12.27;;;4.30;;
422;SDS011;198;48.752;9.180;2023-08-24T09:29:54;4.97;;;3.37;;
422;SDS011;198;48.752;9.180;2023-08-24T09:32:23;10.50;;;4.17;;
422;SDS011;198;48.752;9.180;2023-08-24T09:34:51;10.83;;;4.17;;
422;SDS011;198;48.752;9.180;2023-08-24T09:37:17;7.23;;;3.43;;
422;SDS011;198;48.752;9.180;2023-08-24T09:39:44;8.37;;;3.90;;
422;SDS011;198;48.752;9.180;2023-08-24T09:42:10;10.90;;;4.97;;
422;SDS011;198;48.752;9.180;2023-08-24T09:44:36;6.00;;;3.30;;
422;SDS011;198;48.752;9.180;2023-08-24T09:47:01;9.27;;;3.90;;
422;SDS011;198;48.752;9.180;2023-08-24T09:49:28;7.40;;;3.13;;
422;SDS011;198;48.752;9.180;2023-08-24T09:51:57;10.27;;;3.73;;
422;SDS011;198;48.752;9.180;2023-08-24T09:54:26;9.43;;;3.30;;
422;SDS011;198;48.752;9.180;2023-08-24T09:56:52;6.17;;;2.70;;
422;SDS011;198;48.752;9.180;2023-08-24T09:59:20;7.10;;;3.30;;
422;SDS011;198;48.752;9.180;2023-08-24T10:01:49;9.07;;;3.37;;
422;SDS011;198;48.752;9.180;2023-08-24T10:04:24;4.60;;;2.97;;
422;SDS011;198;48.752;9.180;2023-08-24T10:06:51;13.80;;;3.37;;
422;SDS011;198;48.752;9.180;2023-08-24T10:09:26;2.83;;;2.67;;
422;SDS011;198;48.752;9.180;2023-08-24T10:11:56;5.20;;;3.10;;
422;SDS011;198;48.752;9.180;2023-08-24T10:17:09;3.83;;;3.30;;
422;SDS011;198;48.752;9.180;2023-08-24T10:19:36;6.35;;;3.35;;
422;SDS011;198;48.752;9.180;2023-08-24T10:22:02;4.63;;;2.80;;
422;SDS011;198;48.752;9.180;2023-08-24T10:24:28;10.10;;;3.80;;
422;SDS011;198;48.752;9.180;2023-08-24T10:26:56;12.98;;;3.25;;
422;SDS011;198;48.752;9.180;2023-08-24T10:29:22;10.48;;;3.28;;
422;SDS011;198;48.752;9.180;2023-08-24T10:31:50;8.75;;;2.80;;
422;SDS011;198;48.752;9.180;2023-08-24T10:34:16;8.68;;;3.28;;
422;SDS011;198;48.752;9.180;2023-08-24T10:36:42;2.33;;;1.90;;
422;SDS011;198;48.752;9.180;2023-08-24T10:39:07;4.25;;;2.92;;
422;SDS011;198;48.752;9.180;2023-08-24T10:41:45;5.10;;;3.50;;
422;SDS011;198;48.752;9.180;2023-08-24T10:49:37;4.50;;;2.90;;
422;SDS011;198;48.752;9.180;2023-08-24T10:54:48;9.30;;;2.92;;
422;SDS011;198;48.752;9.180;2023-08-24T10:57:21;7.93;;;3.22;;
422;SDS011;198;48.752;9.180;2023-08-24T10:59:58;5.35;;;3.10;;
422;SDS011;198;48.752;9.180;2023-08-24T11:02:40;3.50;;;3.28;;
422;SDS011;198;48.752;9.180;2023-08-24T11:05:27;10.75;;;3.67;;
422;SDS011;198;48.752;9.180;2023-08-24T11:07:56;7.20;;;3.60;;
422;SDS011;198;48.752;9.180;2023-08-24T11:10:30;7.28;;;3.78;;
422;SDS011;198;48.752;9.180;2023-08-24T11:20:44;10.98;;;3.70;;
422;SDS011;198;48.752;9.180;2023-08-24T11:23:11;8.35;;;3.33;;
422;SDS011;198;48.752;9.180;2023-08-24T11:25:38;5.05;;;3.30;;
422;SDS011;198;48.752;9.180;2023-08-24T11:28:04;4.80;;;3.20;;
422;SDS011;198;48.752;9.180;2023-08-24T11:30:33;6.10;;;3.28;;
422;SDS011;198;48.752;9.180;2023-08-24T11:32:59;4.57;;;3.03;;
422;SDS011;198;48.752;9.180;2023-08-24T11:35:25;3.42;;;3.25;;
422;SDS011;198;48.752;9.180;2023-08-24T11:37:54;8.32;;;3.67;;
422;SDS011;198;48.752;9.180;2023-08-24T11:40:21;4.68;;;3.90;;
422;SDS011;198;48.752;9.180;2023-08-24T11:42:54;5.25;;;3.95;;
422;SDS011;198;48.752;9.180;2023-08-24T11:45:20;9.45;;;3.83;;
422;SDS011;198;48.752;9.180;2023-08-24T11:47:47;10.73;;;3.42;;
422;SDS011;198;48.752;9.180;2023-08-24T11:50:13;6.10;;;3.03;;
422;SDS011;198;48.752;9.180;2023-08-24T11:52:39;2.65;;;2.45;;
422;SDS011;198;48.752;9.180;2023-08-24T11:55:05;10.20;;;3.10;;
422;SDS011;198;48.752;9.180;2023-08-24T11:57:33;6.85;;;3.40;;
422;SDS011;198;48.752;9.180;2023-08-24T11:59:59;8.25;;;3.28;;
422;SDS011;198;48.752;9.180;2023-08-24T12:02:25;13.35;;;3.50;;
422;SDS011;198;48.752;9.180;2023-08-24T12:04:51;5.15;;;3.33;;
422;SDS011;198;48.752;9.180;2023-08-24T12:07:16;8.35;;;3.65;;
422;SDS011;198;48.752;9.180;2023-08-24T12:09:43;8.07;;;3.30;;
422;SDS011;198;48.752;9.180;2023-08-24T12:12:13;5.47;;;3.50;;
422;SDS011;198;48.752;9.180;2023-08-24T12:14:43;5.22;;;3.55;;
422;SDS011;198;48.752;9.180;2023-08-24T12:17:10;10.50;;;3.63;;
422;SDS011;198;48.752;9.180;2023-08-24T12:19:36;15.95;;;4.28;;
422;SDS011;198;48.752;9.180;2023-08-24T12:22:02;5.70;;;3.92;;
422;SDS011;198;48.752;9.180;2023-08-24T12:24:28;7.93;;;4.47;;
422;SDS011;198;48.752;9.180;2023-08-24T12:26:56;4.55;;;3.88;;
422;SDS011;198;48.752;9.180;2023-08-24T12:29:23;8.70;;;4.47;;
422;SDS011;198;48.752;9.180;2023-08-24T12:31:49;17.40;;;3.38;;
422;SDS011;198;48.752;9.180;2023-08-24T12:34:14;16.92;;;4.03;;
422;SDS011;198;48.752;9.180;2023-08-24T12:36:41;11.52;;;2.90;;
422;SDS011;198;48.752;9.180;2023-08-24T12:39:10;4.32;;;3.13;;
422;SDS011;198;48.752;9.180;2023-08-24T12:41:38;2.60;;;2.42;;
422;SDS011;198;48.752;9.180;2023-08-24T12:44:03;9.57;;;4.25;;
422;SDS011;198;48.752;9.180;2023-08-24T12:46:36;6.20;;;3.65;;
422;SDS011;198;48.752;9.180;2023-08-24T12:49:02;12.05;;;4.10;;
422;SDS011;198;48.752;9.180;2023-08-24T12:51:28;10.13;;;3.75;;
422;SDS011;198;48.752;9.180;2023-08-24T12:53:53;5.35;;;3.45;;
422;SDS011;198;48.752;9.180;2023-08-24T12:56:19;9.85;;;3.72;;
422;SDS011;198;48.752;9.180;2023-08-24T12:58:44;7.15;;;3.63;;
422;SDS011;198;48.752;9.180;2023-08-24T13:01:13;6.63;;;3.22;;
422;SDS011;198;48.752;9.180;2023-08-24T13:03:38;8.18;;;3.33;;
422;SDS011;198;48.752;9.180;2023-08-24T13:06:04;9.02;;;4.13;;
422;SDS011;198;48.752;9.180;2023-08-24T13:08:33;10.55;;;4.35;;
422;SDS011;198;48.752;9.180;2023-08-24T13:10:59;8.85;;;3.33;;
422;SDS011;198;48.752;9.180;2023-08-24T13:13:24;9.95;;;4.00;;
422;SDS011;198;48.752;9.180;2023-08-24T13:15:50;6.10;;;2.70;;
422;SDS011;198;48.752;9.180;2023-08-24T13:18:16;3.80;;;2.78;;
422;SDS011;198;48.752;9.180;2023-08-24T13:20:42;11.00;;;3.80;;
422;SDS011;198;48.752;9.180;2023-08-24T13:23:07;6.75;;;3.90;;
422;SDS011;198;48.752;9.180;2023-08-24T13:25:33;11.50;;;3.80;;
422;SDS011;198;48.752;9.180;2023-08-24T13:27:58;11.57;;;4.30;;
422;SDS011;198;48.752;9.180;2023-08-24T13:30:24;20.77;;;4.00;;
422;SDS011;198;48.752;9.180;2023-08-24T13:32:49;16.52;;;4.15;;
422;SDS011;198;48.752;9.180;2023-08-24T13:35:15;6.40;;;3.15;;
422;SDS011;198;48.752;9.180;2023-08-24T13:37:40;5.95;;;3.17;;
422;SDS011;198;48.752;9.180;2023-08-24T13:40:06;9.38;;;3.85;;
422;SDS011;198;48.752;9.180;2023-08-24T13:42:32;9.23;;;3.78;;
422;SDS011;198;48.752;9.180;2023-08-24T13:44:58;6.70;;;3.35;;
422;SDS011;198;48.752;9.180;2023-08-24T13:47:24;10.60;;;3.30;;
422;SDS011;198;48.752;9.180;2023-08-24T13:49:49;12.93;;;3.78;;
422;SDS011;198;48.752;9.180;2023-08-24T13:52:15;24.52;;;4.32;;
422;SDS011;198;48.752;9.180;2023-08-24T13:54:41;15.75;;;4.22;;
422;SDS011;198;48.752;9.180;2023-08-24T13:57:08;21.27;;;3.67;;
422;SDS011;198;48.752;9.180;2023-08-24T13:59:33;9.60;;;3.78;;
422;SDS011;198;48.752;9.180;2023-08-24T14:01:59;16.63;;;3.75;;
422;SDS011;198;48.752;9.180;2023-08-24T14:04:24;6.35;;;3.50;;
422;SDS011;198;48.752;9.180;2023-08-24T14:06:49;12.55;;;3.72;;
422;SDS011;198;48.752;9.180;2023-08-24T14:09:15;6.72;;;3.08;;
422;SDS011;198;48.752;9.180;2023-08-24T14:11:41;8.90;;;3.25;;
422;SDS011;198;48.752;9.180;2023-08-24T14:14:07;6.40;;;3.05;;
422;SDS011;198;48.752;9.180;2023-08-24T14:16:32;5.05;;;3.17;;
422;SDS011;198;48.752;9.180;2023-08-24T14:18:58;14.13;;;3.45;;
422;SDS011;198;48.752;9.180;2023-08-24T14:21:24;11.70;;;3.30;;
422;SDS011;198;48.752;9.180;2023-08-24T14:23:49;15.85;;;3.85;;
422;SDS011;198;48.752;9.180;2023-08-24T14:26:15;11.13;;;3.25;;
422;SDS011;198;48.752;9.180;2023-08-24T14:28:47;18.30;;;4.10;;
422;SDS011;198;48.752;9.180;2023-08-24T14:31:21;23.80;;;4.00;;
422;SDS011;198;48.752;9.180;2023-08-24T14:33:51;13.83;;;3.93;;
422;SDS011;198;48.752;9.180;2023-08-24T14:36:18;21.40;;;4.40;;
422;SDS011;198;48.752;9.180;2023-08-24T14:38:45;12.90;;;3.27;;
422;SDS011;198;48.752;9.180;2023-08-24T14:41:11;10.87;;;4.33;;
422;SDS011;198;48.752;9.180;2023-08-24T14:43:38;11.83;;;4.33;;
422;SDS011;198;48.752;9.180;2023-08-24T14:46:04;12.10;;;4.40;;
422;SDS011;198;48.752;9.180;2023-08-24T14:48:30;10.83;;;3.50;;
422;SDS011;198;48.752;9.180;2023-08-24T14:50:56;9.73;;;3.73;;
422;SDS011;198;48.752;9.180;2023-08-24T14:53:22;18.27;;;5.33;;
422;SDS011;198;48.752;9.180;2023-08-24T14:55:48;11.43;;;4.00;;
422;SDS011;198;48.752;9.180;2023-08-24T14:58:14;11.53;;;3.73;;
422;SDS011;198;48.752;9.180;2023-08-24T15:00:39;18.43;;;3.70;;
422;SDS011;198;48.752;9.180;2023-08-24T15:03:05;8.37;;;4.50;;
422;SDS011;198;48.752;9.180;2023-08-24T15:05:30;7.53;;;4.43;;
422;SDS011;198;48.752;9.180;2023-08-24T15:08:01;10.50;;;4.80;;
422;SDS011;198;48.752;9.180;2023-08-24T15:10:27;12.10;;;4.37;;
422;SDS011;198;48.752;9.180;2023-08-24T15:12:53;15.30;;;5.50;;
422;SDS011;198;48.752;9.180;2023-08-24T15:15:18;11.33;;;3.77;;
422;SDS011;198;48.752;9.180;2023-08-24T15:17:44;9.30;;;3.90;;
422;SDS011;198;48.752;9.180;2023-08-24T15:20:10;5.67;;;3.33;;
422;SDS011;198;48.752;9.180;2023-08-24T15:22:38;7.43;;;2.80;;
422;SDS011;198;48.752;9.180;2023-08-24T15:25:04;7.07;;;3.10;;
422;SDS011;198;48.752;9.180;2023-08-24T15:27:30;7.70;;;2.93;;
422;SDS011;198;48.752;9.180;2023-08-24T15:29:56;3.87;;;2.43;;
422;SDS011;198;48.752;9.180;2023-08-24T15:32:22;6.70;;;2.83;;
422;SDS011;198;48.752;9.180;2023-08-24T15:34:48;8.90;;;3.10;;
422;SDS011;198;48.752;9.180;2023-08-24T15:37:13;5.23;;;2.90;;
422;SDS011;198;48.752;9.180;2023-08-24T15:39:39;4.57;;;2.60;;
422;SDS011;198;48.752;9.180;2023-08-24T15:42:06;8.43;;;3.70;;
422;SDS011;198;48.752;9.180;2023-08-24T15:44:32;10.90;;;2.70;;
422;SDS011;198;48.752;9.180;2023-08-24T15:46:59;6.30;;;3.30;;
422;SDS011;198;48.752;9.180;2023-08-24T15:49:25;8.63;;;2.93;;
422;SDS011;198;48.752;9.180;2023-08-24T15:51:51;5.83;;;3.60;;
422;SDS011;198;48.752;9.180;2023-08-24T15:54:17;5.90;;;3.27;;
422;SDS011;198;48.752;9.180;2023-08-24T15:56:43;6.00;;;2.50;;
422;SDS011;198;48.752;9.180;2023-08-24T15:59:13;7.67;;;2.50;;
422;SDS011;198;48.752;9.180;2023-08-24T16:01:42;4.37;;;2.40;;